Observations for MANCHESTER INTL, United Kingdom (EGCC)

EGCC 180250Z AUTO VRB02KT 9999 NCD 04/02 Q1020 NOSIG
EGCC 180220Z AUTO VRB03KT 9999 NCD 05/02 Q1021 NOSIG
EGCC 180150Z AUTO VRB03KT 9999 NCD 05/03 Q1020 NOSIG
EGCC 180120Z AUTO VRB02KT 9999 BKN048 05/03 Q1020 NOSIG 
EGCC 180050Z AUTO VRB03KT 9999 SCT045 06/03 Q1021 NOSIG 
EGCC 180020Z AUTO VRB02KT 9999 NCD 05/03 Q1021 NOSIG
EGCC 172350Z AUTO VRB03KT 9999 NCD 05/03 Q1021 NOSIG
EGCC 172320Z AUTO VRB02KT 9999 NCD 05/03 Q1021 NOSIG
EGCC 172250Z AUTO VRB02KT 9999 NCD 05/02 Q1021 NOSIG
EGCC 172220Z AUTO VRB02KT 9999 FEW049 05/02 Q1020 NOSIG 
EGCC 172150Z AUTO VRB03KT 9999 NCD 05/02 Q1020 NOSIG
EGCC 172120Z AUTO VRB02KT 9999 FEW043 05/02 Q1020 NOSIG 
EGCC 172050Z AUTO 17003KT 9999 SCT044 05/02 Q1020 NOSIG 
EGCC 172020Z AUTO 15003KT 9999 BKN043 06/02 Q1020 NOSIG 
EGCC 171950Z AUTO VRB03KT 9999 NCD 05/02 Q1020 NOSIG
EGCC 171920Z AUTO 17004KT 9999 NCD 04/02 Q1020 NOSIG
EGCC 171850Z AUTO 16003KT 9999 NCD 05/02 Q1020 NOSIG
EGCC 171820Z AUTO VRB03KT 9999 NCD 05/02 Q1020 NOSIG
EGCC 171750Z AUTO 19004KT 150V210 9999 NCD 05/02 Q1020 NOSIG
EGCC 171720Z AUTO 18004KT 9999 NCD 07/03 Q1019 NOSIG
EGCC 171650Z AUTO 20004KT 150V230 9999 FEW042 08/03 Q1019 NOSIG 
EGCC 171620Z AUTO 20006KT 130V230 9999 BKN040 09/03 Q1019 NOSIG 
EGCC 171550Z AUTO VRB02KT 9999 BKN040 09/03 Q1019 NOSIG 
EGCC 171520Z AUTO VRB03KT 9999 FEW038 09/03 Q1019 NOSIG 
EGCC 171450Z 23004KT 150V270 9999 FEW027 SCT031 09/03 Q1019 NOSIG   
EGCC 171420Z 23004KT 9999 FEW027 SCT035 08/04 Q1019 NOSIG   
EGCC 171350Z AUTO 22004KT 180V260 9999 SCT026 BKN031 BKN045 08/03 Q1019 NOSIG   
EGCC 171320Z AUTO 23004KT 200V260 9999 FEW018 SCT025 BKN031 08/03 Q1020 NOSIG   
EGCC 171250Z 21005KT 140V240 9999 FEW018 SCT034 08/04 Q1020 NOSIG   
EGCC 171220Z 21006KT 170V240 9999 FEW016 SCT034 08/04 Q1020 NOSIG   
EGCC 171150Z 21007KT 9999 FEW012 BKN036 07/05 Q1020 NOSIG   
EGCC 171120Z 20006KT 160V230 9999 FEW010 BKN035 06/04 Q1019 NOSIG   
EGCC 171050Z AUTO 19005KT 150V230 9999 FEW012 BKN034 OVC045 05/04 Q1019 NOSIG   
EGCC 171020Z 19006KT 150V220 9999 -SHRA FEW008 SCT032 BKN045 05/04 Q1019 NOSIG  
EGCC 170950Z 18006KT 140V220 9999 VCSH FEW008 SCT025 BKN032 05/04 Q1019 NOSIG   
EGCC 170920Z AUTO 17005KT 120V200 9999 -RA BKN022/// OVC030/// //////TCU 05/03 Q1019 NOSIG  
EGCC 170850Z 18006KT 100V220 8000 -RA OVC028TCU 04/03 Q1019 NOSIG   
EGCC 170820Z 18005KT 140V210 9000 -RA FEW025 BKN030 04/03 Q1019 NOSIG   
EGCC 170750Z 17004KT 080V220 9000 -RA BKN027 04/03 Q1018 NOSIG  
EGCC 170720Z 16004KT 060V230 9999 -RA BKN028 05/03 Q1018 TEMPO RA   
EGCC 170650Z 15004KT 040V200 9999 -RA FEW026 BKN030 05/02 Q1018 TEMPO RA
EGCC 170620Z AUTO 15004KT 090V220 9999 -RA FEW026/// OVC030/// //////TCU 05/02 Q1018 TEMPO RA   
EGCC 170550Z AUTO 14004KT 090V210 9999 -RA BKN041 05/02 Q1018 TEMPO RA  
EGCC 170520Z AUTO VRB03KT 9999 -RA SCT037/// //////TCU 05/02 Q1019 TEMPO RA 
EGCC 170450Z 19005KT 150V220 9999 -SHRA SCT036TCU 05/02 Q1019 TEMPO RA  
EGCC 170420Z AUTO VRB03KT 9999 -RA BKN038 05/02 Q1019 TEMPO RA  
EGCC 170350Z AUTO 19006KT 150V220 9999 NCD 05/02 Q1019 NOSIG
EGCC 170320Z AUTO 17005KT 120V210 9999 NCD 05/02 Q1019 NOSIG
EGCC 170250Z AUTO 17004KT 120V200 9999 NCD 05/02 Q1019 NOSIG
EGCC 170220Z AUTO 17006KT 080V230 9999 NCD 05/02 Q1019 NOSIG